Jacksonville Naval Air Station Jacksonville US
ICAO: KNIP
IATA: NIP
Category: Medium
Scheduled Services: No

Elevation: 21 ft
TransAlt. 18000 ft.

Airport Communications:
APP/DEP:123.8
ATIS:28.1
CLNC DEL:134.775
GND:128.6
ATCOM:672.3
NAVY JAX OPS:31.02
PMSV METRO:34.35
TWR:120

KNIP Zoom In..

If you have problems with the map follow the link
https://www.worldairports.se/pages/airport.php?
ICAO=KNIP

Runways:

(A) RW 10 length 8002 ft width 200 ft
---- / hdg 95

(B) RW 14 length 5980 ft width 200 ft
---- / hdg 141

(C) RW 28 length 8002 ft width 200 ft
---- / hdg 275

(D) RW 32 length 5980 ft width 200 ft
---- / hdg 321

Location; KNIP
Day. 14 / Time. 20.53 Zulu
* Altimeter: 29.99
* Temperature: 6/° c. 42.8°f.
* Wind from: 200° Speed 06 kn.
Dewpoint: //° c.
Visibility: 6 Statute Miles.
Clouds: Few 700 ft.
Clouds: Few 4000 ft.
Clouds: Overcast 12000 ft.
Conditions: Light Rain.Conditions: Mist.

KNIP 142053Z 20006KT 6SM -RA BR FEW007 FEW040 OVC120 19/18 A2999 RMK AO2 RAB16 SLP150 T2 SET P0001 6//// T01890183 55003 $


Wind From 200°
Speed 06 kn.

 
 
jpsmedia.com for Web Design worldairports.se 2018   terms of use